Time;durP1;ratioP1;P1;durP2;ratioP2;P2;SDS_P1;SDS_P2;PMS_P1;PMS_P2;Temp;Humidity;BMP_temperature;BMP_pressure;BME280_temperature;BME280_humidity;BME280_pressure;Samples;Min_cycle;Max_cycle;Signal;HPM_P1;HPM_P2
2023/08/25 00:02:24;;;;;;;2.20;2.20;;;18.70;99.90;;;;;;4987742;28;20498;-68
2023/08/25 00:04:53;;;;;;;2.40;2.40;;;18.70;99.90;;;;;;4978688;28;20537;-66
2023/08/25 00:07:20;;;;;;;2.10;2.10;;;18.70;99.90;;;;;;4988078;28;20466;-65
2023/08/25 00:09:47;;;;;;;2.20;2.20;;;18.70;99.90;;;;;;4979753;28;20487;-66
2023/08/25 00:12:14;;;;;;;2.30;2.30;;;18.70;99.90;;;;;;4988242;28;20509;-65
2023/08/25 00:14:41;;;;;;;2.37;2.37;;;18.70;99.90;;;;;;4983878;28;20984;-66
2023/08/25 00:17:09;;;;;;;2.30;2.30;;;18.70;99.90;;;;;;4990066;28;20462;-67
2023/08/25 00:19:36;;;;;;;2.40;2.40;;;18.60;99.90;;;;;;4990532;28;20561;-66
2023/08/25 00:22:05;;;;;;;2.50;2.50;;;18.60;99.90;;;;;;4990324;28;20803;-65
2023/08/25 00:24:33;;;;;;;2.80;2.80;;;18.60;99.90;;;;;;4984564;28;20474;-66
2023/08/25 00:27:00;;;;;;;2.50;2.50;;;18.60;99.90;;;;;;4988418;28;20466;-66
2023/08/25 00:29:28;;;;;;;2.90;2.90;;;18.50;99.90;;;;;;4983846;28;20512;-66
2023/08/25 00:31:56;;;;;;;3.00;3.00;;;18.60;99.90;;;;;;4993286;28;20517;-66
2023/08/25 00:34:23;;;;;;;2.73;2.73;;;18.50;99.90;;;;;;4985614;28;20481;-67
2023/08/25 00:36:51;;;;;;;2.90;2.90;;;18.40;99.90;;;;;;4986545;28;20973;-66
2023/08/25 00:39:20;;;;;;;3.20;3.20;;;18.40;99.90;;;;;;4989322;28;20465;-65
2023/08/25 00:41:47;;;;;;;3.27;3.27;;;18.30;99.90;;;;;;4985052;28;20569;-66
2023/08/25 00:44:14;;;;;;;3.60;3.60;;;18.30;99.90;;;;;;4989987;28;20558;-66
2023/08/25 00:46:42;;;;;;;3.97;3.97;;;18.20;99.90;;;;;;4984706;28;20475;-66
2023/08/25 00:49:09;;;;;;;3.33;3.33;;;18.20;99.90;;;;;;4985420;28;20831;-66
2023/08/25 00:51:36;;;;;;;2.90;2.90;;;18.20;99.90;;;;;;4986998;28;20470;-66
2023/08/25 00:54:04;;;;;;;3.10;3.10;;;18.20;99.90;;;;;;4987099;28;20581;-67
2023/08/25 00:56:35;;;;;;;2.50;2.50;;;18.20;99.90;;;;;;4989236;28;20520;-66
2023/08/25 00:59:04;;;;;;;2.70;2.70;;;18.20;99.90;;;;;;4988166;28;20485;-66
2023/08/25 01:01:31;;;;;;;2.20;2.20;;;18.30;99.90;;;;;;4987966;28;20882;-66
2023/08/25 01:03:59;;;;;;;2.30;2.30;;;18.30;99.90;;;;;;4984141;28;20469;-65
2023/08/25 01:06:26;;;;;;;2.40;2.40;;;18.40;99.90;;;;;;4984417;28;20462;-65
2023/08/25 01:08:54;;;;;;;2.43;2.43;;;18.40;99.90;;;;;;4987390;28;20470;-65
2023/08/25 01:11:36;;;;;;;2.50;2.50;;;18.40;99.90;;;;;;4989577;28;20462;-66
2023/08/25 01:14:11;;;;;;;2.73;2.73;;;18.50;99.90;;;;;;4987555;28;20459;-67
2023/08/25 01:16:44;;;;;;;3.30;3.30;;;18.50;99.90;;;;;;4989623;28;20482;-66
2023/08/25 01:19:26;;;;;;;3.30;3.30;;;18.50;99.90;;;;;;4984776;28;20524;-67
2023/08/25 01:21:59;;;;;;;3.70;3.70;;;18.50;99.90;;;;;;4987892;28;20487;-66
2023/08/25 01:24:34;;;;;;;3.40;3.40;;;18.50;99.90;;;;;;4984589;28;20466;-66
2023/08/25 01:27:03;;;;;;;3.60;3.60;;;18.50;99.90;;;;;;4989288;28;20960;-66
2023/08/25 01:29:30;;;;;;;3.60;3.60;;;18.50;99.90;;;;;;4989090;28;20545;-66
2023/08/25 01:31:57;;;;;;;3.50;3.50;;;18.40;99.90;;;;;;4991647;28;20907;-66
2023/08/25 01:34:25;;;;;;;3.80;3.80;;;18.40;99.90;;;;;;4987507;28;20483;-66
2023/08/25 01:36:58;;;;;;;3.30;3.30;;;18.40;99.90;;;;;;4983772;28;20558;-67
2023/08/25 01:39:26;;;;;;;3.07;3.07;;;18.40;99.90;;;;;;4984235;28;20513;-67
2023/08/25 01:41:57;;;;;;;2.90;2.90;;;18.50;99.90;;;;;;4987231;28;20466;-66
2023/08/25 01:44:29;;;;;;;3.10;3.10;;;18.50;99.90;;;;;;4988237;28;20454;-67
2023/08/25 01:47:02;;;;;;;3.27;3.27;;;18.50;99.90;;;;;;4988833;28;20457;-66
2023/08/25 01:49:31;;;;;;;3.23;3.23;;;18.50;99.90;;;;;;4984638;28;20462;-65
2023/08/25 01:52:00;;;;;;;3.30;3.30;;;18.50;99.90;;;;;;4988510;28;20965;-65
2023/08/25 01:54:27;;;;;;;3.10;3.10;;;18.50;99.90;;;;;;4986095;28;20837;-66
2023/08/25 01:56:53;;;;;;;3.10;3.10;;;18.50;99.90;;;;;;4988247;28;20466;-66
2023/08/25 01:59:21;;;;;;;3.20;3.20;;;18.50;99.90;;;;;;4989099;28;20521;-66
2023/08/25 02:01:49;;;;;;;3.50;3.50;;;18.50;99.90;;;;;;4990406;28;20474;-65
2023/08/25 02:04:16;;;;;;;3.40;3.40;;;18.50;99.90;;;;;;4988959;28;20933;-66
2023/08/25 02:06:43;;;;;;;3.20;3.20;;;18.50;99.90;;;;;;4984433;28;20475;-66
2023/08/25 02:09:11;;;;;;;3.80;3.80;;;18.50;99.90;;;;;;4983561;28;20470;-66
2023/08/25 02:11:39;;;;;;;3.90;3.90;;;18.50;99.90;;;;;;4981156;28;20473;-65
2023/08/25 02:14:06;;;;;;;3.60;3.60;;;18.50;99.90;;;;;;4986963;28;20863;-66
2023/08/25 02:16:33;;;;;;;3.80;3.80;;;18.40;99.90;;;;;;4988640;28;20470;-66
2023/08/25 02:19:01;;;;;;;3.33;3.33;;;18.30;99.90;;;;;;4987295;28;20492;-66
2023/08/25 02:21:28;;;;;;;3.30;3.30;;;18.30;99.90;;;;;;4974199;28;20470;-66
2023/08/25 02:23:56;;;;;;;3.30;3.30;;;18.30;99.90;;;;;;4989094;28;20907;-66
2023/08/25 02:26:23;;;;;;;3.33;3.33;;;18.20;99.90;;;;;;4988914;28;20617;-66
2023/08/25 02:28:50;;;;;;;3.80;3.80;;;18.20;99.90;;;;;;4986691;28;20946;-66
2023/08/25 02:31:17;;;;;;;3.93;3.93;;;18.20;99.90;;;;;;4990237;28;20462;-66
2023/08/25 02:33:43;;;;;;;3.50;3.50;;;18.20;99.90;;;;;;4982371;28;20527;-66
2023/08/25 02:36:12;;;;;;;3.50;3.50;;;18.30;99.90;;;;;;4985012;28;20521;-66
2023/08/25 02:38:39;;;;;;;3.50;3.50;;;18.20;99.90;;;;;;4986914;28;20473;-66
2023/08/25 02:41:06;;;;;;;3.80;3.80;;;18.20;99.90;;;;;;4989057;28;20513;-66
2023/08/25 02:43:34;;;;;;;4.30;4.30;;;18.20;99.90;;;;;;4988308;28;20552;-65
2023/08/25 02:46:00;;;;;;;4.00;4.00;;;18.20;99.90;;;;;;4981181;28;20466;-65
2023/08/25 02:48:27;;;;;;;4.40;4.40;;;18.30;99.90;;;;;;4984133;28;20471;-66
2023/08/25 02:50:54;;;;;;;3.90;3.90;;;18.40;99.90;;;;;;4983896;28;20498;-65
2023/08/25 02:53:22;;;;;;;3.50;3.50;;;18.30;99.90;;;;;;4988652;28;20477;-65
2023/08/25 02:55:49;;;;;;;4.00;4.00;;;18.30;99.90;;;;;;4986584;28;20471;-65
2023/08/25 02:58:16;;;;;;;3.70;3.70;;;18.30;99.90;;;;;;4987493;28;20455;-67
2023/08/25 03:00:42;;;;;;;3.90;3.90;;;18.20;99.90;;;;;;4992159;28;20472;-66
2023/08/25 03:03:10;;;;;;;3.80;3.80;;;18.20;99.90;;;;;;4983759;28;20548;-65
2023/08/25 03:05:39;;;;;;;4.40;4.40;;;18.20;99.90;;;;;;4991504;28;20913;-66
2023/08/25 03:08:11;;;;;;;4.30;4.30;;;18.10;99.90;;;;;;4988648;28;20580;-66
2023/08/25 03:10:43;;;;;;;3.40;3.40;;;18.00;99.90;;;;;;4987876;28;20569;-66
2023/08/25 03:13:10;;;;;;;4.03;4.03;;;18.00;99.90;;;;;;4991746;28;20984;-66
2023/08/25 03:15:37;;;;;;;4.10;4.10;;;17.90;99.90;;;;;;4991398;28;20450;-67
2023/08/25 03:18:05;;;;;;;4.23;4.23;;;17.80;99.90;;;;;;4986875;28;20494;-66
2023/08/25 03:20:32;;;;;;;4.30;4.30;;;17.80;99.90;;;;;;4989382;28;20466;-66
2023/08/25 03:23:00;;;;;;;4.90;4.90;;;17.80;99.90;;;;;;4978795;28;20498;-66
2023/08/25 03:25:26;;;;;;;4.00;4.00;;;17.80;99.90;;;;;;4991770;28;20498;-66
2023/08/25 03:27:55;;;;;;;4.50;4.50;;;17.80;99.90;;;;;;4991589;28;20484;-66
2023/08/25 03:30:23;;;;;;;4.57;4.57;;;17.70;99.90;;;;;;4986353;28;20469;-66
2023/08/25 03:32:50;;;;;;;4.57;4.57;;;17.70;99.90;;;;;;4987110;28;20482;-67
2023/08/25 03:35:16;;;;;;;4.77;4.77;;;17.70;99.90;;;;;;4986643;28;20980;-66
2023/08/25 03:37:44;;;;;;;4.47;4.47;;;17.70;99.90;;;;;;4991273;28;20463;-66
2023/08/25 03:40:11;;;;;;;4.50;4.50;;;17.70;99.90;;;;;;4991758;28;20459;-66
2023/08/25 03:42:38;;;;;;;4.40;4.40;;;17.70;99.90;;;;;;4987781;28;20502;-66
2023/08/25 03:45:09;;;;;;;4.53;4.53;;;17.70;99.90;;;;;;4988755;28;20458;-65
2023/08/25 03:47:36;;;;;;;4.60;4.60;;;17.60;99.90;;;;;;4990588;28;20455;-67
2023/08/25 03:50:02;;;;;;;4.60;4.60;;;17.60;99.90;;;;;;4991150;28;21186;-66
2023/08/25 03:52:30;;;;;;;4.80;4.80;;;17.50;99.90;;;;;;4988904;28;20467;-66
2023/08/25 03:54:57;;;;;;;4.90;4.90;;;17.50;99.90;;;;;;4985624;28;20494;-66
2023/08/25 03:57:25;;;;;;;5.20;5.10;;;17.40;99.90;;;;;;4989475;28;20517;-65
2023/08/25 03:59:52;;;;;;;5.40;5.30;;;17.40;99.90;;;;;;4986083;28;20468;-66
2023/08/25 04:02:21;;;;;;;4.70;4.70;;;17.40;99.90;;;;;;4992401;28;20470;-65
2023/08/25 04:04:49;;;;;;;5.00;5.00;;;17.40;99.90;;;;;;4985825;28;20467;-66
2023/08/25 04:07:16;;;;;;;5.13;5.10;;;17.40;99.90;;;;;;4988937;28;20983;-66
2023/08/25 04:09:42;;;;;;;4.67;4.67;;;17.40;99.90;;;;;;4990732;28;20505;-66
2023/08/25 04:12:09;;;;;;;4.60;4.60;;;17.40;99.90;;;;;;4990637;28;20871;-66
2023/08/25 04:14:37;;;;;;;4.70;4.70;;;17.40;99.90;;;;;;4984317;28;20466;-66
2023/08/25 04:17:04;;;;;;;4.70;4.70;;;17.40;99.90;;;;;;4990217;28;20466;-66
2023/08/25 04:19:33;;;;;;;5.00;5.00;;;17.40;99.90;;;;;;4987096;28;20463;-65
2023/08/25 04:22:00;;;;;;;5.00;5.00;;;17.40;99.90;;;;;;4986477;28;20458;-66
2023/08/25 04:24:26;;;;;;;4.47;4.47;;;17.30;99.90;;;;;;4984769;28;20490;-67
2023/08/25 04:26:54;;;;;;;4.80;4.80;;;17.30;99.90;;;;;;4990584;28;20895;-66
2023/08/25 04:29:21;;;;;;;4.73;4.73;;;17.30;99.90;;;;;;4989342;28;20458;-67
2023/08/25 04:31:47;;;;;;;4.83;4.83;;;17.30;99.90;;;;;;4987163;28;21025;-66
2023/08/25 04:34:14;;;;;;;4.90;4.90;;;17.30;99.90;;;;;;4990217;28;20467;-65
2023/08/25 04:36:45;;;;;;;5.00;5.00;;;17.30;99.90;;;;;;4988865;28;20509;-65
2023/08/25 04:39:13;;;;;;;4.70;4.70;;;17.30;99.90;;;;;;4989741;28;20454;-66
2023/08/25 04:41:41;;;;;;;4.70;4.70;;;17.30;99.90;;;;;;4985444;28;20545;-65
2023/08/25 04:44:07;;;;;;;4.60;4.60;;;17.30;99.90;;;;;;4985102;28;20893;-65
2023/08/25 04:46:34;;;;;;;4.80;4.80;;;17.30;99.90;;;;;;4989851;28;20466;-66
2023/08/25 04:49:02;;;;;;;4.80;4.80;;;17.20;99.90;;;;;;4985329;28;20480;-67
2023/08/25 04:51:29;;;;;;;4.57;4.57;;;17.20;99.90;;;;;;4990044;28;20548;-66
2023/08/25 04:53:57;;;;;;;5.00;5.00;;;17.20;99.90;;;;;;4984382;28;20493;-66
2023/08/25 04:56:25;;;;;;;5.20;5.10;;;17.20;99.90;;;;;;4990430;28;20487;-66
2023/08/25 04:58:52;;;;;;;4.80;4.80;;;17.20;99.90;;;;;;4987609;28;20463;-67
2023/08/25 05:01:19;;;;;;;5.20;5.10;;;17.20;99.90;;;;;;4987410;28;21088;-66
2023/08/25 05:03:48;;;;;;;5.30;5.20;;;17.20;99.90;;;;;;4980122;28;20513;-67
2023/08/25 05:06:15;;;;;;;5.20;5.10;;;17.20;99.90;;;;;;4981152;28;20455;-65
2023/08/25 05:08:42;;;;;;;4.60;4.60;;;17.30;99.90;;;;;;4977033;28;20459;-66
2023/08/25 05:11:11;;;;;;;4.83;4.83;;;17.30;99.90;;;;;;4980069;28;20473;-66
2023/08/25 05:13:37;;;;;;;5.00;5.00;;;17.30;99.90;;;;;;4978779;28;20929;-66
2023/08/25 05:16:04;;;;;;;5.17;5.13;;;17.30;99.90;;;;;;4980045;28;20573;-67
2023/08/25 05:18:32;;;;;;;4.37;4.37;;;17.40;99.90;;;;;;4979200;28;20486;-66
2023/08/25 05:21:00;;;;;;;4.50;4.50;;;17.40;99.90;;;;;;4978270;28;20477;-65
2023/08/25 05:23:27;;;;;;;4.70;4.70;;;17.50;99.90;;;;;;4976011;28;20498;-66
2023/08/25 05:25:55;;;;;;;4.30;4.30;;;17.50;99.90;;;;;;4980543;28;21025;-66
2023/08/25 05:28:24;;;;;;;4.70;4.70;;;17.50;99.90;;;;;;4976970;28;20466;-66
2023/08/25 05:30:51;;;;;;;4.10;4.10;;;17.50;99.90;;;;;;4985185;28;20461;-65
2023/08/25 05:33:18;;;;;;;4.20;4.20;;;17.50;99.90;;;;;;4978229;28;20467;-66
2023/08/25 05:35:45;;;;;;;4.30;4.30;;;17.60;99.90;;;;;;4975119;28;21262;-66
2023/08/25 05:38:13;;;;;;;3.90;3.90;;;17.70;99.90;;;;;;4979640;28;20447;-66
2023/08/25 05:40:40;;;;;;;3.30;3.30;;;17.80;99.90;;;;;;4979057;28;20540;-67
2023/08/25 05:43:07;;;;;;;3.50;3.50;;;17.80;99.90;;;;;;4980160;28;20463;-66
2023/08/25 05:45:36;;;;;;;4.10;4.10;;;17.90;99.90;;;;;;4981157;28;20888;-66
2023/08/25 05:48:03;;;;;;;3.50;3.50;;;18.00;99.90;;;;;;4974734;28;20467;-65
2023/08/25 05:50:30;;;;;;;3.80;3.80;;;18.10;99.90;;;;;;4978006;28;20985;-67
2023/08/25 05:52:57;;;;;;;3.47;3.47;;;18.20;99.90;;;;;;4980306;28;20466;-66
2023/08/25 05:55:26;;;;;;;3.67;3.67;;;18.30;99.90;;;;;;4979482;28;22587;-66
2023/08/25 05:57:54;;;;;;;3.50;3.50;;;18.50;99.90;;;;;;4976521;28;20459;-67
2023/08/25 06:00:21;;;;;;;3.10;3.10;;;18.60;99.90;;;;;;4979870;28;20458;-66
2023/08/25 06:02:49;;;;;;;3.10;3.10;;;18.70;99.90;;;;;;4983091;28;20819;-66
2023/08/25 06:05:16;;;;;;;3.70;3.70;;;18.80;99.90;;;;;;4982628;28;20573;-68
2023/08/25 06:07:43;;;;;;;2.90;2.90;;;19.00;99.90;;;;;;4976382;28;20502;-67
2023/08/25 06:10:10;;;;;;;3.20;3.20;;;19.10;99.90;;;;;;4982791;28;20490;-67
2023/08/25 06:12:37;;;;;;;3.30;3.30;;;19.20;99.90;;;;;;4982033;28;20462;-66
2023/08/25 06:15:05;;;;;;;3.40;3.40;;;19.30;99.90;;;;;;4979893;28;20472;-67
2023/08/25 06:17:32;;;;;;;3.10;3.10;;;19.50;99.90;;;;;;4978186;28;20545;-69
2023/08/25 06:20:00;;;;;;;3.60;3.60;;;19.60;99.90;;;;;;4979907;28;21001;-68
2023/08/25 06:22:27;;;;;;;4.60;4.60;;;19.70;99.90;;;;;;4981579;28;20459;-68
2023/08/25 06:24:54;;;;;;;5.33;5.23;;;19.70;99.90;;;;;;4982321;28;20507;-66
2023/08/25 06:27:21;;;;;;;4.80;4.80;;;19.80;99.90;;;;;;4974774;28;20491;-68
2023/08/25 06:29:48;;;;;;;5.07;5.07;;;19.90;99.90;;;;;;4983757;28;20459;-68
2023/08/25 06:32:15;;;;;;;4.20;4.20;;;20.00;99.90;;;;;;4980376;28;20471;-67
2023/08/25 06:34:42;;;;;;;4.87;4.87;;;20.10;99.90;;;;;;4979941;28;20458;-65
2023/08/25 06:37:11;;;;;;;4.20;4.20;;;20.30;99.90;;;;;;4986337;28;20549;-66
2023/08/25 06:39:38;;;;;;;3.77;3.77;;;20.40;99.90;;;;;;4984140;28;20473;-67
2023/08/25 06:42:05;;;;;;;4.33;4.33;;;20.50;99.90;;;;;;4988944;28;20450;-66
2023/08/25 06:44:33;;;;;;;4.10;4.10;;;20.70;99.90;;;;;;4985144;28;20482;-66
2023/08/25 06:47:00;;;;;;;5.67;5.57;;;20.90;99.90;;;;;;4982035;28;20467;-66
2023/08/25 06:49:26;;;;;;;5.70;5.60;;;21.10;99.90;;;;;;4982328;28;20470;-66
2023/08/25 06:51:53;;;;;;;6.00;5.90;;;21.20;99.90;;;;;;4984489;28;20743;-65
2023/08/25 06:54:24;;;;;;;6.30;6.20;;;21.30;99.90;;;;;;4986371;28;20880;-66
2023/08/25 06:56:51;;;;;;;6.23;6.13;;;21.40;99.90;;;;;;4985491;28;20477;-67
2023/08/25 06:59:18;;;;;;;6.60;6.50;;;21.50;99.90;;;;;;4987039;28;20521;-66
2023/08/25 07:01:45;;;;;;;7.17;7.07;;;21.40;99.90;;;;;;4985222;28;20468;-66
2023/08/25 07:04:12;;;;;;;6.70;6.60;;;21.00;99.90;;;;;;4965139;28;20585;-67
2023/08/25 07:06:39;;;;;;;16.83;15.87;;;20.90;99.90;;;;;;4976659;28;20510;-68
2023/08/25 07:09:06;;;;;;;10.27;10.07;;;20.70;99.90;;;;;;4981636;28;20455;-69
2023/08/25 07:11:34;;;;;;;11.43;11.13;;;19.10;99.90;;;;;;4987237;28;20488;-70
2023/08/25 07:14:02;;;;;;;7.33;7.23;;;18.70;99.90;;;;;;4979554;28;20463;-68
2023/08/25 07:16:30;;;;;;;8.40;8.30;;;18.20;99.90;;;;;;4974495;28;20591;-68
2023/08/25 07:18:57;;;;;;;10.20;10.00;;;18.20;99.90;;;;;;4939600;28;20492;-68
2023/08/25 07:21:24;;;;;;;12.83;12.53;;;18.10;99.90;;;;;;4947727;28;21039;-69
2023/08/25 07:23:51;;;;;;;12.50;12.20;;;18.10;99.90;;;;;;4946738;28;20485;-68
2023/08/25 07:26:18;;;;;;;13.67;13.27;;;18.10;99.90;;;;;;4949353;28;20849;-68
2023/08/25 07:28:47;;;;;;;17.20;16.50;;;18.10;99.90;;;;;;4937305;28;20480;-70
2023/08/25 07:31:14;;;;;;;9.50;9.30;;;17.80;99.90;;;;;;4936975;28;20495;-69
2023/08/25 07:33:42;;;;;;;7.80;7.70;;;17.70;99.90;;;;;;4941694;28;20496;-70
2023/08/25 07:36:09;;;;;;;9.10;8.90;;;17.80;99.90;;;;;;4941255;28;20475;-69
2023/08/25 07:38:36;;;;;;;11.47;11.17;;;18.00;99.90;;;;;;4944761;28;20468;-69
2023/08/25 07:41:03;;;;;;;10.27;10.07;;;18.00;99.90;;;;;;4944114;28;20618;-68
2023/08/25 07:43:30;;;;;;;10.03;9.83;;;18.10;99.90;;;;;;4946957;29;20460;-69
2023/08/25 07:45:58;;;;;;;7.93;7.83;;;18.00;99.90;;;;;;4934687;28;20729;-69
2023/08/25 07:48:25;;;;;;;7.30;7.20;;;17.90;99.90;;;;;;4943646;28;20487;-68
2023/08/25 07:50:51;;;;;;;7.43;7.33;;;17.90;99.90;;;;;;4943489;28;20464;-68
2023/08/25 07:53:18;;;;;;;6.93;6.83;;;18.00;99.90;;;;;;4948039;28;20464;-69
2023/08/25 07:55:45;;;;;;;6.57;6.47;;;17.90;99.90;;;;;;4938919;29;20476;-69
2023/08/25 07:58:11;;;;;;;7.10;7.00;;;18.00;99.90;;;;;;4949832;29;20464;-69
2023/08/25 08:00:38;;;;;;;7.00;6.90;;;18.00;99.90;;;;;;4948484;28;20468;-70
2023/08/25 08:03:08;;;;;;;7.40;7.30;;;18.10;99.90;;;;;;4946593;28;20724;-69
2023/08/25 08:05:35;;;;;;;5.50;5.40;;;18.20;99.90;;;;;;4943761;29;20495;-69
2023/08/25 08:08:02;;;;;;;5.80;5.70;;;18.30;99.90;;;;;;4942005;29;20473;-67
2023/08/25 08:10:29;;;;;;;6.80;6.70;;;18.30;99.90;;;;;;4948472;28;20470;-69
2023/08/25 08:12:57;;;;;;;6.40;6.30;;;18.30;99.90;;;;;;4949933;28;20499;-69
2023/08/25 08:15:25;;;;;;;7.83;7.73;;;18.10;99.90;;;;;;4945108;28;20475;-69
2023/08/25 08:17:52;;;;;;;8.23;8.13;;;17.90;99.90;;;;;;4943482;28;20611;-68
2023/08/25 08:20:21;;;;;;;8.30;8.20;;;17.70;99.90;;;;;;4949024;29;20560;-68
2023/08/25 08:22:47;;;;;;;9.20;9.00;;;17.70;99.90;;;;;;4940366;28;20477;-69
2023/08/25 08:25:14;;;;;;;9.33;9.13;;;17.80;99.90;;;;;;4935110;29;20495;-68
2023/08/25 08:27:42;;;;;;;14.50;14.00;;;17.70;99.90;;;;;;4939897;29;20468;-71
2023/08/25 08:30:10;;;;;;;9.20;9.00;;;17.90;99.90;;;;;;4949434;28;20545;-69
2023/08/25 08:32:38;;;;;;;7.80;7.70;;;17.90;99.90;;;;;;4946448;29;20460;-69
2023/08/25 08:35:08;;;;;;;6.80;6.70;;;17.90;99.90;;;;;;4946828;28;20520;-68
2023/08/25 08:37:36;;;;;;;6.70;6.60;;;18.00;99.90;;;;;;4942518;28;20464;-69
2023/08/25 08:40:05;;;;;;;7.30;7.20;;;18.20;99.90;;;;;;4949388;29;20468;-68
2023/08/25 08:42:34;;;;;;;7.03;6.93;;;18.40;99.90;;;;;;4942098;29;20472;-69
2023/08/25 08:45:04;;;;;;;7.80;7.70;;;18.50;99.90;;;;;;4950023;28;20489;-69
2023/08/25 08:47:31;;;;;;;8.00;7.90;;;18.80;99.90;;;;;;4952122;28;21026;-68
2023/08/25 08:50:00;;;;;;;8.40;8.30;;;18.80;99.90;;;;;;4951137;28;20538;-67
2023/08/25 08:52:28;;;;;;;8.50;8.40;;;19.00;99.90;;;;;;4942499;28;20822;-67
2023/08/25 08:54:57;;;;;;;8.80;8.70;;;19.40;99.90;;;;;;4955649;28;20514;-68
2023/08/25 08:57:25;;;;;;;6.90;6.80;;;19.40;99.90;;;;;;4968391;28;20460;-67
2023/08/25 08:59:52;;;;;;;6.30;6.20;;;19.40;99.90;;;;;;4975421;28;20452;-68
2023/08/25 09:02:20;;;;;;;6.30;6.20;;;19.20;99.90;;;;;;4964321;28;20471;-67
2023/08/25 09:04:50;;;;;;;6.10;6.00;;;19.40;99.90;;;;;;4961906;28;20495;-66
2023/08/25 09:07:19;;;;;;;6.50;6.40;;;19.60;99.90;;;;;;4963428;28;20506;-67
2023/08/25 09:09:47;;;;;;;6.90;6.80;;;20.10;99.90;;;;;;4962321;28;20495;-67
2023/08/25 09:12:17;;;;;;;7.60;7.50;;;20.50;99.90;;;;;;4968089;28;20529;-67
2023/08/25 09:14:45;;;;;;;7.23;7.13;;;20.70;99.90;;;;;;4967444;28;20518;-67
2023/08/25 09:17:14;;;;;;;7.40;7.30;;;20.90;99.90;;;;;;4965663;28;20468;-67
2023/08/25 09:19:41;;;;;;;7.57;7.47;;;20.80;99.90;;;;;;4966607;28;20488;-67
2023/08/25 09:22:13;;;;;;;8.50;8.40;;;21.00;99.90;;;;;;4962431;28;20829;-69
2023/08/25 09:24:43;;;;;;;9.60;9.40;;;21.20;99.90;;;;;;4959814;28;20493;-67
2023/08/25 09:27:23;;;;;;;10.67;10.37;;;21.30;99.90;;;;;;4967863;28;20822;-67
2023/08/25 09:29:58;;;;;;;12.70;12.30;;;21.50;99.90;;;;;;4964751;28;20594;-68
2023/08/25 09:32:28;;;;;;;11.57;11.27;;;21.40;99.90;;;;;;4965676;28;20450;-68
2023/08/25 09:34:55;;;;;;;10.20;10.00;;;21.40;99.90;;;;;;4960809;28;20478;-68
2023/08/25 09:37:23;;;;;;;9.77;9.57;;;21.30;99.90;;;;;;4958585;28;21664;-67
2023/08/25 09:39:49;;;;;;;10.83;10.53;;;21.00;99.90;;;;;;4964319;28;20833;-67
2023/08/25 09:42:20;;;;;;;10.87;10.57;;;20.90;99.90;;;;;;4966429;28;20463;-69
2023/08/25 09:44:48;;;;;;;9.90;9.70;;;20.70;99.90;;;;;;4967080;28;20487;-68
2023/08/25 09:47:15;;;;;;;9.03;8.83;;;20.50;99.90;;;;;;4962143;28;20471;-68
2023/08/25 09:49:44;;;;;;;8.13;8.03;;;20.50;99.90;;;;;;4965489;28;20455;-67
2023/08/25 09:52:16;;;;;;;8.73;8.63;;;20.30;99.90;;;;;;4961818;28;20480;-66
2023/08/25 09:54:44;;;;;;;15.10;14.50;;;20.30;99.90;;;;;;4959871;28;20865;-69
2023/08/25 09:57:12;;;;;;;12.23;11.93;;;20.20;99.90;;;;;;4967594;28;20981;-68
2023/08/25 09:59:40;;;;;;;10.87;10.67;;;19.90;99.90;;;;;;4963767;28;20467;-68
2023/08/25 10:02:11;;;;;;;11.80;11.50;;;19.90;99.90;;;;;;4960080;28;20597;-68
2023/08/25 10:04:40;;;;;;;10.50;10.30;;;19.80;99.90;;;;;;4967466;28;20489;-69
2023/08/25 10:07:08;;;;;;;10.90;10.70;;;19.60;99.90;;;;;;4962410;28;20478;-70
2023/08/25 10:09:34;;;;;;;10.03;9.83;;;19.40;99.90;;;;;;4958165;28;20464;-70
2023/08/25 10:12:07;;;;;;;10.30;10.10;;;19.30;99.90;;;;;;4966744;28;20592;-70
2023/08/25 10:14:40;;;;;;;9.30;9.10;;;19.20;99.90;;;;;;4965356;28;20995;-70
2023/08/25 10:17:10;;;;;;;9.90;9.70;;;19.20;99.90;;;;;;4964579;28;20467;-68
2023/08/25 10:19:39;;;;;;;8.20;8.10;;;19.20;99.90;;;;;;4971446;28;20839;-69
2023/08/25 10:22:08;;;;;;;7.60;7.50;;;19.10;99.90;;;;;;4970066;28;21007;-69
2023/08/25 10:24:37;;;;;;;7.37;7.27;;;19.10;99.90;;;;;;4968161;28;20471;-68
2023/08/25 10:27:05;;;;;;;7.30;7.20;;;19.10;99.90;;;;;;4956818;28;20467;-69
2023/08/25 10:29:33;;;;;;;6.47;6.37;;;19.00;99.90;;;;;;4966986;28;20464;-67
2023/08/25 10:32:01;;;;;;;6.27;6.17;;;19.10;99.90;;;;;;4965644;28;20521;-69
2023/08/25 10:34:34;;;;;;;5.60;5.50;;;19.00;99.90;;;;;;4966150;28;20469;-68
2023/08/25 10:37:05;;;;;;;5.40;5.30;;;19.10;99.90;;;;;;4958219;28;20475;-68
2023/08/25 10:39:48;;;;;;;5.90;5.80;;;19.20;99.90;;;;;;4965700;28;20462;-68
2023/08/25 10:42:24;;;;;;;5.70;5.60;;;19.40;99.90;;;;;;4963109;28;20521;-68
2023/08/25 10:44:54;;;;;;;6.10;6.00;;;19.70;99.90;;;;;;4967083;28;20494;-67
2023/08/25 10:47:22;;;;;;;5.90;5.80;;;19.90;99.90;;;;;;4965442;28;20474;-68
2023/08/25 10:49:55;;;;;;;5.50;5.40;;;20.20;99.90;;;;;;4965602;28;20458;-66
2023/08/25 10:52:23;;;;;;;6.00;5.90;;;20.50;99.90;;;;;;4961035;28;20463;-68
2023/08/25 10:54:52;;;;;;;5.90;5.80;;;20.70;99.90;;;;;;4967612;28;20491;-67
2023/08/25 10:57:20;;;;;;;6.70;6.60;;;21.00;99.90;;;;;;4964590;28;20507;-67
2023/08/25 10:59:50;;;;;;;6.47;6.37;;;21.00;99.90;;;;;;4963921;28;20814;-68
2023/08/25 11:02:35;;;;;;;8.50;8.40;;;21.00;99.90;;;;;;4959447;28;21027;-67
2023/08/25 11:05:45;;;;;;;8.20;8.10;;;20.80;99.90;;;;;;4952633;28;20581;-68
2023/08/25 11:08:27;;;;;;;8.40;8.30;;;21.00;99.90;;;;;;4964324;28;20530;-69
2023/08/25 11:11:12;;;;;;;8.07;7.97;;;21.10;99.90;;;;;;4964963;28;20486;-67
2023/08/25 11:13:40;;;;;;;9.20;9.00;;;21.00;99.90;;;;;;4964456;28;20465;-67
2023/08/25 11:16:10;;;;;;;9.10;8.90;;;20.90;99.90;;;;;;4966363;28;20506;-68
2023/08/25 11:18:41;;;;;;;9.90;9.70;;;20.90;99.90;;;;;;4963592;28;21030;-68
2023/08/25 11:21:10;;;;;;;8.60;8.50;;;20.90;99.90;;;;;;4965143;28;20464;-68
2023/08/25 11:23:39;;;;;;;11.00;10.70;;;20.60;99.90;;;;;;4961487;28;20471;-69
2023/08/25 11:26:07;;;;;;;8.80;8.70;;;20.70;99.90;;;;;;4965052;28;21107;-67
2023/08/25 11:28:35;;;;;;;8.70;8.60;;;20.90;99.90;;;;;;4958881;28;20472;-68
2023/08/25 11:31:03;;;;;;;7.90;7.80;;;21.10;99.90;;;;;;4964008;28;20750;-69
2023/08/25 11:33:33;;;;;;;7.70;7.60;;;21.60;99.90;;;;;;4960158;28;20643;-67
2023/08/25 11:36:02;;;;;;;7.60;7.50;;;21.90;99.90;;;;;;4964482;28;20563;-67
2023/08/25 11:38:31;;;;;;;6.70;6.60;;;22.00;99.90;;;;;;4963601;28;20514;-69
2023/08/25 11:40:58;;;;;;;6.70;6.60;;;22.30;99.90;;;;;;4966434;28;20460;-69
2023/08/25 11:43:30;;;;;;;6.93;6.83;;;22.50;99.90;;;;;;4960902;28;20672;-67
2023/08/25 11:45:58;;;;;;;7.90;7.80;;;22.40;99.90;;;;;;4970849;28;20499;-69
2023/08/25 11:48:25;;;;;;;8.30;8.20;;;22.30;99.90;;;;;;4962563;28;21000;-68
2023/08/25 11:50:52;;;;;;;8.50;8.40;;;22.40;99.90;;;;;;4969439;28;20877;-68
2023/08/25 11:53:19;;;;;;;8.50;8.40;;;22.60;99.90;;;;;;4966454;28;21034;-69
2023/08/25 11:56:01;;;;;;;9.60;9.40;;;22.60;99.90;;;;;;4969168;28;20455;-69
2023/08/25 11:58:32;;;;;;;9.50;9.30;;;22.60;99.90;;;;;;4962417;28;20464;-68
2023/08/25 12:01:05;;;;;;;9.83;9.63;;;22.60;99.90;;;;;;4962076;28;20463;-67
2023/08/25 12:03:32;;;;;;;10.10;9.90;;;22.40;99.90;;;;;;4967365;28;20989;-67
2023/08/25 12:06:00;;;;;;;10.00;9.80;;;22.40;99.90;;;;;;4968713;28;20903;-67
2023/08/25 12:08:27;;;;;;;9.80;9.60;;;22.30;99.90;;;;;;4966901;28;20632;-67
2023/08/25 12:10:57;;;;;;;14.30;13.70;;;22.30;99.90;;;;;;4960334;28;20999;-68
2023/08/25 12:13:32;;;;;;;13.60;13.10;;;22.20;99.90;;;;;;4965003;28;20570;-68
2023/08/25 12:15:59;;;;;;;12.77;12.37;;;22.00;99.90;;;;;;4965379;28;20462;-69
2023/08/25 12:18:33;;;;;;;12.10;11.70;;;21.90;99.90;;;;;;4968460;28;20479;-69
2023/08/25 12:21:00;;;;;;;11.70;11.40;;;21.80;99.90;;;;;;4959406;28;20567;-68
2023/08/25 12:23:33;;;;;;;11.40;11.10;;;21.70;99.90;;;;;;4967247;28;20470;-67
2023/08/25 12:26:00;;;;;;;10.50;10.30;;;21.70;99.90;;;;;;4969171;28;20582;-68
2023/08/25 12:28:29;;;;;;;10.50;10.30;;;21.70;99.90;;;;;;4961931;28;20510;-68
2023/08/25 12:30:56;;;;;;;10.10;9.90;;;21.60;99.90;;;;;;4960326;28;20464;-67
2023/08/25 12:33:23;;;;;;;10.30;10.10;;;21.50;99.90;;;;;;4965017;28;20455;-69
2023/08/25 12:35:50;;;;;;;11.50;11.20;;;21.30;99.90;;;;;;4955738;28;20834;-67
2023/08/25 12:38:17;;;;;;;10.87;10.57;;;21.20;99.90;;;;;;4965136;28;20842;-66
2023/08/25 12:40:44;;;;;;;10.60;10.40;;;21.20;99.90;;;;;;4962799;28;20463;-67
2023/08/25 12:43:12;;;;;;;8.60;8.50;;;21.30;99.90;;;;;;4962712;28;20474;-67
2023/08/25 12:45:42;;;;;;;7.77;7.67;;;21.90;99.90;;;;;;4969238;28;20495;-67
2023/08/25 12:48:09;;;;;;;7.90;7.80;;;22.60;99.90;;;;;;4965803;28;20962;-67
2023/08/25 12:50:37;;;;;;;7.60;7.50;;;23.10;99.90;;;;;;4962781;28;20460;-67